Latest Weather Observations for Melville Water

IDW60901

Issued at 12:11 am WST Friday 24 February 2017 (issued every 10 minutes, with the page automatically refreshed every 10 minutes)

About weather observations | Map of Perth area stations | Latest observations for Perth area | Other Formats
Station Details ID: 009091 Name: INNER DOLPHIN PYLON Lat: -31.99 Lon: 115.83 Height: 0.0 m
Data from the previous 72 hours. | See also: Recent months at Melville Water
Date/Time
WST
Temp
°C
App
Temp
°C
Dew
Point
°C
Rel
Hum
%
Delta-T
°C
Wind Press
QNH
hPa
Press
MSL
hPa
Rain since
9am
mm
Dir  Spd
km/h
Gust
km/h
Spd
kts
Gust
kts
24/12:00am - - - - - SSE 9 11 5 6 - - -
 
Date/Time
WST
Temp
°C
App
Temp
°C
Dew
Point
°C
Rel
Hum
%
Delta-T
°C
Wind Press
QNH
hPa
Press
MSL
hPa
Rain since
9am
mm
Dir  Spd
km/h
Gust
km/h
Spd
kts
Gust
kts
23/11:30pm - - - - - SSE 11 17 6 9 - - -
23/11:00pm - - - - - SSE 7 11 4 6 - - -
23/10:30pm - - - - - S 11 17 6 9 - - -
23/10:00pm - - - - - S 11 15 6 8 - - -
23/09:30pm - - - - - S 17 24 9 13 - - -
23/09:00pm - - - - - S 15 20 8 11 - - -
23/08:30pm - - - - - SSW 19 22 10 12 - - -
23/08:00pm - - - - - SSW 19 24 10 13 - - -
23/07:30pm - - - - - SSW 19 22 10 12 - - -
23/07:00pm - - - - - SSW 19 22 10 12 - - -
23/06:30pm - - - - - SSW 20 24 11 13 - - -
23/06:00pm - - - - - SSW 22 26 12 14 - - -
23/05:30pm - - - - - SSW 24 28 13 15 - - -
23/05:00pm - - - - - SSW 20 28 11 15 - - -
23/04:30pm - - - - - SW 26 32 14 17 - - -
23/04:00pm - - - - - SSW 28 32 15 17 - - -
23/03:30pm - - - - - SW 26 30 14 16 - - -
23/03:00pm - - - - - SW 26 30 14 16 - - -
23/02:30pm - - - - - SW 20 24 11 13 - - -
23/02:00pm - - - - - SW 20 24 11 13 - - -
23/01:30pm - - - - - SW 20 24 11 13 - - -
23/01:00pm - - - - - SW 20 24 11 13 - - -
23/12:30pm - - - - - SW 9 11 5 6 - - -
23/12:00pm - - - - - ESE 6 11 3 6 - - -
23/11:30am - - - - - NW 4 7 2 4 - - -
23/11:00am - - - - - NNE 7 11 4 6 - - -
23/10:30am - - - - - NE 9 15 5 8 - - -
23/10:00am - - - - - NE 19 24 10 13 - - -
23/09:30am - - - - - NE 11 17 6 9 - - -
23/09:00am - - - - - ENE 9 15 5 8 - - -
23/08:30am - - - - - ESE 11 15 6 8 - - -
23/08:00am - - - - - ESE 9 13 5 7 - - -
23/07:30am - - - - - SE 13 17 7 9 - - -
23/07:00am - - - - - SE 17 22 9 12 - - -
23/06:30am - - - - - SE 15 17 8 9 - - -
23/06:00am - - - - - SSE 13 17 7 9 - - -
23/05:30am - - - - - SE 15 17 8 9 - - -
23/05:00am - - - - - SSE 9 13 5 7 - - -
23/04:30am - - - - - SE 9 13 5 7 - - -
23/04:00am - - - - - SE 11 13 6 7 - - -
23/03:30am - - - - - SE 9 11 5 6 - - -
23/03:00am - - - - - SE 9 13 5 7 - - -
23/02:30am - - - - - SSE 11 13 6 7 - - -
23/02:00am - - - - - SSE 9 13 5 7 - - -
23/01:30am - - - - - SSE 9 13 5 7 - - -
23/01:00am - - - - - SSE 11 13 6 7 - - -
23/12:30am - - - - - SSE 9 15 5 8 - - -
23/12:00am - - - - - SSE 13 17 7 9 - - -
 
Date/Time
WST
Temp
°C
App
Temp
°C
Dew
Point
°C
Rel
Hum
%
Delta-T
°C
Wind Press
QNH
hPa
Press
MSL
hPa
Rain since
9am
mm
Dir  Spd
km/h
Gust
km/h
Spd
kts
Gust
kts
22/11:30pm - - - - - SSE 15 19 8 10 - - -
22/11:00pm - - - - - SSE 17 24 9 13 - - -
22/10:30pm - - - - - SSE 15 20 8 11 - - -
22/10:00pm - - - - - S 15 20 8 11 - - -
22/09:30pm - - - - - S 17 24 9 13 - - -
22/09:00pm - - - - - S 20 26 11 14 - - -
22/08:30pm - - - - - S 20 28 11 15 - - -
22/08:00pm - - - - - SSW 24 28 13 15 - - -
22/07:30pm - - - - - SSW 26 33 14 18 - - -
22/07:00pm - - - - - SSW 30 35 16 19 - - -
22/06:30pm - - - - - SSW 26 33 14 18 - - -
22/06:00pm - - - - - SSW 30 35 16 19 - - -
22/05:30pm - - - - - SSW 26 37 14 20 - - -
22/05:00pm - - - - - SSW 26 32 14 17 - - -
22/04:30pm - - - - - SSW 30 37 16 20 - - -
22/04:00pm - - - - - SSW 28 33 15 18 - - -
22/03:30pm - - - - - SW 28 35 15 19 - - -
22/03:00pm - - - - - SW 30 37 16 20 - - -
22/02:30pm - - - - - SW 28 35 15 19 - - -
22/02:00pm - - - - - SW 26 35 14 19 - - -
22/01:30pm - - - - - SW 22 28 12 15 - - -
22/01:00pm - - - - - SW 17 28 9 15 - - -
22/12:30pm - - - - - SW 9 17 5 9 - - -
22/12:00pm - - - - - SSW 7 13 4 7 - - -
22/11:30am - - - - - N 2 6 1 3 - - -
22/11:00am - - - - - SSW 13 19 7 10 - - -
22/10:30am - - - - - SSE 11 22 6 12 - - -
22/10:00am - - - - - SE 9 15 5 8 - - -
22/09:30am - - - - - SE 11 17 6 9 - - -
22/09:00am - - - - - ESE 17 22 9 12 - - -
22/08:30am - - - - - ESE 15 20 8 11 - - -
22/08:00am - - - - - ESE 15 19 8 10 - - -
22/07:30am - - - - - E 15 20 8 11 - - -
22/07:00am - - - - - E 13 17 7 9 - - -
22/06:30am - - - - - ENE 13 17 7 9 - - -
22/06:00am - - - - - ESE 13 15 7 8 - - -
22/05:30am - - - - - E 9 13 5 7 - - -
22/05:00am - - - - - E 9 13 5 7 - - -
22/04:30am - - - - - E 9 13 5 7 - - -
22/04:00am - - - - - SE 11 17 6 9 - - -
22/03:30am - - - - - SE 13 17 7 9 - - -
22/03:00am - - - - - SE 15 17 8 9 - - -
22/02:30am - - - - - SE 15 19 8 10 - - -
22/02:00am - - - - - SE 15 19 8 10 - - -
22/01:30am - - - - - SSE 15 19 8 10 - - -
22/01:00am - - - - - S 15 19 8 10 - - -
22/12:30am - - - - - SSE 17 22 9 12 - - -
22/12:00am - - - - - S 17 22 9 12 - - -
 
Date/Time
WST
Temp
°C
App
Temp
°C
Dew
Point
°C
Rel
Hum
%
Delta-T
°C
Wind Press
QNH
hPa
Press
MSL
hPa
Rain since
9am
mm
Dir  Spd
km/h
Gust
km/h
Spd
kts
Gust
kts
21/11:30pm - - - - - SSE 19 24 10 13 - - -
21/11:00pm - - - - - S 20 28 11 15 - - -
21/10:30pm - - - - - S 20 26 11 14 - - -
21/10:00pm - - - - - S 17 22 9 12 - - -
21/09:30pm - - - - - S 19 24 10 13 - - -
21/09:00pm - - - - - S 19 22 10 12 - - -
21/08:30pm - - - - - S 20 24 11 13 - - -
21/08:00pm - - - - - SSW 26 32 14 17 - - -
21/07:30pm - - - - - SSW 30 39 16 21 - - -
21/07:00pm - - - - - SSW 32 41 17 22 - - -
21/06:30pm - - - - - S 32 43 17 23 - - -
21/06:00pm - - - - - SSW 32 39 17 21 - - -
21/05:30pm - - - - - SSW 35 48 19 26 - - -
21/05:00pm - - - - - SSW 35 46 19 25 - - -
21/04:30pm - - - - - SSW 37 46 20 25 - - -
21/04:00pm - - - - - SSW 33 46 18 25 - - -
21/03:30pm - - - - - SSW 39 50 21 27 - - -
21/03:00pm - - - - - SSW 39 50 21 27 - - -
21/02:30pm - - - - - SW 39 50 21 27 - - -
21/02:00pm - - - - - SSW 37 50 20 27 - - -
21/01:30pm - - - - - SW 32 61 17 33 - - -
21/01:26pm - - - - - SSW 32 61 17 33 - - -
21/01:00pm - - - - - SSW 35 44 19 24 - - -
21/12:30pm - - - - - SSW 35 48 19 26 - - -
21/12:00pm - - - - - SSW 32 44 17 24 - - -
21/11:30am - - - - - SW 35 43 19 23 - - -
21/11:00am - - - - - SSW 35 46 19 25 - - -
21/10:30am - - - - - SW 37 48 20 26 - - -
21/10:00am - - - - - SSW 41 54 22 29 - - -
21/09:30am - - - - - SW 39 52 21 28 - - -
21/09:00am - - - - - SSW 43 54 23 29 - - -
21/08:30am - - - - - SSW 41 54 22 29 - - -
21/08:00am - - - - - SSW 41 48 22 26 - - -
21/07:49am - - - - - SW 32 54 17 29 - - -
21/07:30am - - - - - SSW 32 43 17 23 - - -
21/07:00am - - - - - SW 37 50 20 27 - - -
21/06:30am - - - - - SW 41 52 22 28 - - -
21/06:09am - - - - - WSW 35 46 19 25 - - -
21/06:00am - - - - - W 20 35 11 19 - - -
21/05:30am - - - - - W 24 37 13 20 - - -
21/05:00am - - - - - WSW 26 35 14 19 - - -
21/04:30am - - - - - WSW 24 32 13 17 - - -
21/04:00am - - - - - W 19 26 10 14 - - -
21/03:30am - - - - - WSW 26 33 14 18 - - -
21/03:00am - - - - - WSW 22 30 12 16 - - -
21/02:30am - - - - - WSW 17 24 9 13 - - -
21/02:00am - - - - - SW 26 35 14 19 - - -
21/01:30am - - - - - SW 30 37 16 20 - - -
21/01:00am - - - - - SW 28 35 15 19 - - -
21/12:30am - - - - - SW 26 35 14 19 - - -

Latest Capital City Observations: Canberra | Sydney | Melbourne | Brisbane | Adelaide | Perth | Hobart | Darwin

Other Formats:

Comma delimited format used in spreadsheet applications
http://www.bom.gov.au/fwo/IDW60901/IDW60901.95620.axf

JavaScript Object Notation format (JSON) in row-major order
http://www.bom.gov.au/fwo/IDW60901/IDW60901.95620.json